Saint Thomas, Pennsylvania
Current Conditions -  °F | °C
As of 12:53 AM on Wednesday 26 Nov 2014 (Local Time) from KHGR Reporting Station
Clear Clear  
Wind Chill: 42°   Ceiling: Unl
Heat Index: 44°   Visibility: 10mi
Dew Point: 30°   Wind: 5mph
Humidity: 58%   Direction: 360°N
Pressure: 30.16"   Gusts: NA
Location:  39.92°N, 77.8°W
Report Text: KHGR 260553Z AUTO 36004KT 10SM CLR 07/M01 A3016 RMK AO2 SLP224 T00671011 10100 20039 53009 TSNO
Loading
Personal Weather Stations






























Interactive Weather Map New forecast layout! Learn more

10-Day Weather Forecast

Advertisements
Track Severe Weather on mobile